Timeline UpdatesTrip UpdatesNews PostsPvt PostsTravel TipsAdmin PostsConv PostsFollowed PostsChat RequestsBlog PostsPNR Posts

Disclaimer
Search
 
 
Fri Aug 29, 2014 13:33:00 ISTHomeTrainsΣChainsAtlasPNRForumGalleryNewsFAQTripsMembersLoginFeedback
No Recent News for this Train
Other Trains in the News **new
Latest...
Train.No.17482 Tirupati - Bilaspur Express scheduled to depart Tirupati at 10 35 hrs on 27th October, 2013 is cancelled.
Sat Oct 26, 2013 (06:33PM)
⇐ Return Journey: Train# 17481

17482/Tirupati-Bilaspur Express

Jul 03 2013 (7:39AM)
Change Departure Station:
Change Arrival Station:
Post a Train Travel TipPost a Train Travel Tip **new
Post a Comment/Question/Picture/VideoPost a Comment/Question/Picture/Video
Pantry/Catering
???
Loco/Rake Reversals
VSKP/Visakhapatnam Junction (8); R/Raipur Junction (6);
RSA - Rake Sharing
Rake/Coach Composition
ENG-SLR-GS-GS-GS-B1-S5-S4-S3-S2-S1-GS-GS-GS-SLR (TPTY-VSKP & R-BSP); ; ENG-SLR-GS-GS-GS-S1-S2-S3-S4-S5-B1-GS-GS-GS-SLR (VSKP-R)
Loco
TPTY- VSKP: BZA WAM-4
News    PNR    Forum    Time-Table    Availability    Fare Chart    Map    Arr/Dep History    Trips    Gallery    ΣChains    X/O    Timeline    
Travel Time: 6h 50m    10 halts    Distance: 326 km    Avg Speed: 47 km/hr
Type: Mail/Express
Zone: SCR/South Central
Departs @ 10:55 (Avg 10m late)
Platform# 1
 M   F 
Kesinga/KSNG 
Arrives @ 17:45 (Avg 23m late)
Platform# 6
 M   F 
Bilaspur Junction/BSP 

10 halts. 33 intermediate Stations between Kesinga and Bilaspur Junction

Show ALL intermediate Stations  Show Old Time-Table

#CodeStation NameX/OArrivesAvgDepartsAvgHaltPFDay#KmSpeedElevZoneAddress
1TPTYTirupati Main (5)  -10:35+231-1076.840150mSCRChittoor Distt, Andhra Pradesh
2RURenigunta Junction (5)  10:50+1310:52+192m--1-1066.960113mSCRChittoor District, Andhra Pradesh
3KHTSri Kalahasti (2)  11:15+2311:16+231m21-1043.76468mSCRChittoor District, Andhra Pradesh
4VKIVenkatagiri (3)  11:39+2211:40+231m11-1019.25277mSCRNellore District, Andhra Pradesh
5VDDVendodu (2)  11:59+1912:00+201m--1-1002.71955mSCRNellore, Andhra Pradesh
6GDRGudur Junction (3)X  13:00+613:05+115m21-983.58919mSCRGudur, Andhra Pradesh
7NLRNellore (4)  13:31+1713:32+181m21-945.07121mSCRNellore, Andhra Pradesh
8BTTRBitragunta (2)  14:01+2414:02+271m11-910.75815mSCRBitragunta, Andhra Pradesh
9KVZKavali (4)  14:19+2514:20+261m31-894.29121mSCRKavali, Andhra Pradesh
10SKMSingarayakonda (2)  14:45+2714:46+281m11-856.56426mSCRSingarayakonda, Andhra Pradesh
11TNRTanguturu (3)  14:55+3314:56+341m11-846.94510mSCRTanguturu, Andhra Pradesh
12OGLOngole (3)  15:21+2415:22+251m11-828.25312mSCROngole, Andhra Pradesh
13ANBAmmanabrolu (3)  15:39+2315:40+231m--1-813.37716mSCRAmmanabrolu, Andhra Pradesh
14CJMChinnaganjam (3)X  15:51+2615:52+271m--1-799.2759mSCRChinna Ganjam, Andhra Pradesh
15VTMVetapalem (3)  16:02+2616:03+271m--1-786.8678mSCRVetapalem, Andhra Pradesh
16CLXChirala (4)  16:10+2616:11+261m--1-778.9758mSCRChirala, Andhra Pradesh
17BPPBapatla (3)X  16:23+2916:24+291m--1-763.86910mSCRBapatla, Andhra Pradesh
18NDONidubrolu (3)X  16:42+3416:43+341m--1-743.3709mSCRNidubrolu, Andhra Pradesh
19TSRTsunduru (3)  16:52+3416:53+351m--1-732.84312mSCRTsunduru, Andhra Pradesh
20TELTenali Junction (5)  17:09+3617:10+451m--1-721.24216mSCRTel: 08644-227834, Andhra Pradesh
21DIGDuggirala (3)  17:24+4317:25+431m--1-711.52016mSCRDuggirala, Andhra Pradesh
22BZAVijayawada Junction (10)  18:30+1018:50+1320m--1-690.03624mSCRVijayawada 520001, Andhra Pradesh
23GDVGudivada Junction (3)X  20:03+2620:05+292m11-646.86111mSCRKrishna District, Andhra Pradesh
24KKLRKaikaluru (2)X  20:34+4720:35+481m--1-617.5538mSCRKaikalur, Andhra Pradesh
25AKVDAkividu (3)  20:54+5420:55+561m--1-600.8315mSCRCoast Andhra, Andhra Pradesh
26BVRTBhimavaram Town (2)X  21:29+4221:30+471m11-583.2418mSCRBhimavaram, Andhra Pradesh
27ALAttili (1)  21:59+5122:00+531m11-563.43314mSCRWest Godavari, Andhra Pradesh
28TNKUTanuku (2)  22:19+4622:20+471m--1-552.82112mSCR131, Andhra Pradesh
29NDDNidadavolu Junction (3)  23:08+1923:09+221m--1-535.75120mSCRNidadavolu jtn ph.no. 08813-210325, Andhra Pradesh
30KVRKovvur (3)X  23:26+3323:27+421m11-521.32025mSCRWest Godavari, Andhra Pradesh
31RJYRajahmundry (3)  23:50+3700:25+4435m31-513.57523mSCRRajahmundry ph.no. 0883-2420541, Andhra Pradesh
32DWPDwarapudi (3)  00:41+5100:43+542m--2-493.64520mSCREast Godavari District, Andhra Pradesh
33APTAnaparti (3)X  00:48+5500:49+551m--2-489.88021mSCREast Godavari District, Andhra Pradesh
34SLOSamalkot Junction (3)  01:09+5301:10+531m12-463.36018mSCRSamalkot, Andhra Pradesh
35PAPPithapuram (2)X  01:22+5101:23+511m--2-451.28322mSCREast Godavari District, Andhra Pradesh
36ANVAnnavaram (3)O  01:41+5201:42+531m32-426.56727mSCREast Godavari District, Andhra Pradesh
37TUNITuni (2)  01:57+5001:58+501m22-409.88024mSCRTuni ph.no. 08854-252172, Andhra Pradesh
38YLMElamanchili (2)XO  02:28+5502:29+551m--2-369.87923mSCRVisakhapatnam District, Andhra Pradesh
39AKPAnakapalle (3)O  02:47+3902:48+401m32-346.01630mSCRAnakapalle ph.no . 08924-221698, Andhra Pradesh
40DVDDuvvada (4)O  03:48+2804:00+1712m--2-330.01846mECoRVishakhapatnam District, Andhra Pradesh
41VSKPVisakhapatnam Junction (8)X04:55-205:15+120m42-313.73011mECoRVishakhapatnam 530001, Andhra Pradesh
42SCMSimhachalam (2)X  05:31-05:32-1m--2-305.67727mECoRVisakhapatnam, Andhra Pradesh
43KTVKottavalasa Junction (5)  05:46+405:47+51m--2-287.57558mECoRVizianagaram District, Andhra Pradesh
44VZMVizianagaram Junction (5)X  06:15+1406:20+145m--2-252.57663mECoRVizianagaram, Andhra Pradesh
45VBLBobbili Junction (2)X  07:03+1807:05+172m12-198.368137mECoRBobbili, Andhra Pradesh
46PVPParvatipuram (3)  07:26+1407:27+151m--2-174.425122mECoRParvatipuram, Andhra Pradesh
47PVPTParvatipuram Town  07:31-07:32-1m--2-172.757121mECoRParvatipuram, Andhra Pradesh
48RGDARayagada (3)  08:20+508:30+410m--2-127.435229mECoRRayagada ph.no 06856-222407, Odisha
49SPRDSingapuram Road (2)  08:46+108:47+21m--2-118.247248mECoRJaykaypur, Odisha
50THVTherubali  08:59+509:00+61m--2-108.860270mECoRRayagada, Odisha
51MNGDMuniguda  09:36+309:37+51m--2-72.868335mECoRMuniguda, Odisha
52AMBAmbodala  09:59+410:00+51m--2-47.962374mECoRState Highway 6, Odisha
53NRLRNorla RoadX  10:24+210:25+31m--2-22.944247mECoRKalahandi, Odisha
54RPRDRupra Road  10:34+110:35+21m--2-16.251233mECoRKalahandi, Odisha
55KSNG»Kesinga (1)»XO  10:54+710:55+101m120.056183mECoRKesinga, Odisha
56TIGTitlagarh Junction (3)X  11:10+111:20+610m--213.978212mECoRTitlagarh, Odisha
57KBJKantabanji  11:45+2411:55+2510m--246.473283mECoRBolangir, Odisha
58HSKHarishanker Road (2)  12:14+2612:15+281m--269.674335mECoRPin Code:767038, Odisha
59NPDNawapara Road  12:39+4212:40+431m--299.163344mECoRNuapada District, Odisha
60KRARKhariar Road  12:51+4312:52+441m--2110.766317mECoRJonk, Odisha
61BGBRBagbahra  13:11+4513:12+451m--2131.768358mECoRBagbahra, Chhattisgarh
62MSMDMahasamund  13:39+4413:40+451m--2162.338301mECoRMahasamund, Chhattisgarh
63RRaipur Junction (6)XO15:05+2615:30+3125m--2215.972297mSECRRaipur, Chhattisgarh
64TLDTilda (3)O  16:02+5116:03+521m--2254.174291mSECRBanjari Rd, Chhattisgarh
65BYTBhatapara (4)XO  16:24+3716:25+381m--2280.135270mSECRBanjari Road, Chhattisgarh
66BSP•Bilaspur Junction (8)•  17:45+23-62326.3-271mSECRBilaspur, Chhattisgarh
Scroll to Top
Scroll to Bottom